TimeEDT,TemperatureF,Dew PointF,Humidity,Sea Level PressureIn,VisibilityMPH,Wind Direction,Wind SpeedMPH,Gust SpeedMPH,PrecipitationIn,Events,Conditions,WindDirDegrees,DateUTC
12:15 AM,84.2,75.2,74,29.75,10.0,SW,9.2,-,0.00,,Clear,220,2013-06-14 04:15:00
12:35 AM,84.2,75.2,74,29.76,9.0,Calm,Calm,-,0.00,,Clear,0,2013-06-14 04:35:00
12:55 AM,82.4,75.2,79,29.75,9.0,Calm,Calm,-,0.00,,Clear,0,2013-06-14 04:55:00
1:15 AM,82.4,75.2,79,29.76,9.0,Calm,Calm,-,0.00,,Clear,0,2013-06-14 05:15:00
1:35 AM,82.4,75.2,79,29.76,8.0,Calm,Calm,-,0.00,,Clear,0,2013-06-14 05:35:00
1:55 AM,82.4,75.2,79,29.75,8.0,SSW,4.6,-,0.00,,Clear,210,2013-06-14 05:55:00
2:15 AM,82.4,75.2,79,29.75,9.0,Calm,Calm,-,0.00,,Clear,0,2013-06-14 06:15:00
2:35 AM,80.6,75.2,84,29.75,8.0,Calm,Calm,-,0.00,,Clear,0,2013-06-14 06:35:00
2:55 AM,80.6,75.2,84,29.75,9.0,Calm,Calm,-,0.00,,Clear,0,2013-06-14 06:55:00
3:15 AM,80.6,73.4,79,29.74,10.0,Calm,Calm,-,0.00,,Clear,0,2013-06-14 07:15:00
3:35 AM,80.6,73.4,79,29.75,10.0,Calm,Calm,-,0.00,,Clear,0,2013-06-14 07:35:00
3:55 AM,78.8,73.4,83,29.75,10.0,WNW,3.5,-,0.00,,Clear,290,2013-06-14 07:55:00
4:15 AM,78.8,73.4,83,29.75,10.0,Calm,Calm,-,0.00,,Clear,0,2013-06-14 08:15:00
4:35 AM,78.8,73.4,83,29.76,10.0,Calm,Calm,-,0.00,,Clear,0,2013-06-14 08:35:00
4:55 AM,78.8,71.6,78,29.76,10.0,NNW,3.5,-,0.00,,Mostly Cloudy,330,2013-06-14 08:55:00
5:15 AM,78.8,73.4,83,29.78,10.0,NW,3.5,-,0.00,,Overcast,310,2013-06-14 09:15:00
5:35 AM,78.8,71.6,78,29.78,10.0,NNW,4.6,-,0.00,,Overcast,340,2013-06-14 09:35:00
5:55 AM,78.8,71.6,78,29.79,10.0,NNW,4.6,-,0.00,,Overcast,330,2013-06-14 09:55:00
6:15 AM,77.0,69.8,78,29.80,10.0,NNW,5.8,-,0.00,,Scattered Clouds,330,2013-06-14 10:15:00
6:35 AM,77.0,69.8,78,29.82,10.0,NNW,6.9,-,0.00,,Clear,330,2013-06-14 10:35:00
6:55 AM,77.0,69.8,78,29.82,10.0,North,8.1,-,0.00,,Clear,350,2013-06-14 10:55:00
7:15 AM,78.8,68.0,69,29.83,10.0,North,6.9,-,0.00,,Clear,10,2013-06-14 11:15:00
7:35 AM,78.8,66.2,65,29.83,10.0,North,9.2,-,0.00,,Clear,10,2013-06-14 11:35:00
7:55 AM,78.8,66.2,65,29.83,10.0,North,11.5,16.1,0.00,,Clear,10,2013-06-14 11:55:00
8:15 AM,78.8,66.2,65,29.84,10.0,North,10.4,16.1,0.00,,Clear,360,2013-06-14 12:15:00
8:35 AM,78.8,64.4,61,29.84,10.0,North,11.5,17.3,0.00,,Clear,360,2013-06-14 12:35:00
8:55 AM,78.8,62.6,57,29.86,10.0,North,9.2,-,0.00,,Clear,360,2013-06-14 12:55:00
9:15 AM,80.6,60.8,51,29.86,10.0,North,6.9,17.3,0.00,,Clear,360,2013-06-14 13:15:00
9:35 AM,80.6,57.2,45,29.87,10.0,North,12.7,16.1,0.00,,Clear,10,2013-06-14 13:35:00
9:55 AM,80.6,55.4,42,29.87,10.0,NNE,12.7,18.4,0.00,,Clear,20,2013-06-14 13:55:00
10:15 AM,80.6,53.6,39,29.87,10.0,North,12.7,-,0.00,,Clear,10,2013-06-14 14:15:00
10:35 AM,80.6,53.6,39,29.87,10.0,NNE,8.1,-,0.00,,Clear,20,2013-06-14 14:35:00
10:55 AM,80.6,55.4,42,29.87,10.0,NNE,3.5,-,0.00,,Partly Cloudy,20,2013-06-14 14:55:00
11:15 AM,82.4,57.2,42,29.88,10.0,North,8.1,-,0.00,,Partly Cloudy,350,2013-06-14 15:15:00
11:35 AM,82.4,57.2,42,29.88,10.0,NNW,5.8,-,0.00,,Scattered Clouds,340,2013-06-14 15:35:00
11:55 AM,82.4,55.4,39,29.89,10.0,NNW,9.2,16.1,0.00,,Scattered Clouds,340,2013-06-14 15:55:00
12:15 PM,82.4,55.4,39,29.88,10.0,NNE,5.8,-,0.00,,Scattered Clouds,20,2013-06-14 16:15:00
12:35 PM,84.2,55.4,37,29.87,10.0,NNW,4.6,-,0.00,,Clear,330,2013-06-14 16:35:00
12:55 PM,84.2,55.4,37,29.88,10.0,Calm,Calm,-,0.00,,Clear,0,2013-06-14 16:55:00
1:15 PM,86.0,55.4,35,29.88,10.0,NNW,10.4,-,0.00,,Partly Cloudy,330,2013-06-14 17:15:00
1:35 PM,84.2,55.4,37,29.88,10.0,North,5.8,-,0.00,,Scattered Clouds,360,2013-06-14 17:35:00
1:55 PM,87.8,55.4,33,29.87,10.0,NNW,4.6,-,0.00,,Scattered Clouds,340,2013-06-14 17:55:00
2:15 PM,86.0,55.4,35,29.87,10.0,NNW,4.6,-,0.00,,Clear,330,2013-06-14 18:15:00
2:35 PM,87.8,57.2,35,29.88,10.0,North,6.9,-,0.00,,Clear,350,2013-06-14 18:35:00
2:55 PM,86.0,55.4,35,29.88,10.0,Calm,Calm,-,0.00,,Clear,0,2013-06-14 18:55:00
3:15 PM,86.0,57.2,37,29.88,10.0,North,8.1,-,0.00,,Clear,10,2013-06-14 19:15:00
3:35 PM,87.8,57.2,35,29.89,10.0,NNW,4.6,-,0.00,,Clear,330,2013-06-14 19:35:00
3:55 PM,86.0,57.2,37,29.89,10.0,North,3.5,-,0.00,,Clear,350,2013-06-14 19:55:00
4:15 PM,84.2,57.2,40,29.89,10.0,NNE,8.1,-,0.00,,Scattered Clouds,20,2013-06-14 20:15:00
4:35 PM,84.2,57.2,40,29.90,10.0,North,4.6,-,0.00,,Clear,360,2013-06-14 20:35:00
4:55 PM,87.8,57.2,35,29.89,10.0,North,9.2,-,0.00,,Clear,350,2013-06-14 20:55:00
5:15 PM,86.0,57.2,37,29.89,10.0,North,6.9,-,0.00,,Partly Cloudy,360,2013-06-14 21:15:00
5:35 PM,86.0,55.4,35,29.89,10.0,North,8.1,-,0.00,,Scattered Clouds,10,2013-06-14 21:35:00
5:55 PM,86.0,55.4,35,29.89,10.0,North,9.2,-,0.00,,Partly Cloudy,360,2013-06-14 21:55:00
6:15 PM,84.2,55.4,37,29.90,10.0,North,4.6,-,0.00,,Clear,350,2013-06-14 22:15:00
6:35 PM,82.4,62.6,51,29.90,10.0,East,6.9,-,0.00,,Clear,90,2013-06-14 22:35:00
6:55 PM,80.6,64.4,58,29.90,10.0,East,8.1,-,0.00,,Partly Cloudy,100,2013-06-14 22:55:00
7:15 PM,80.6,64.4,58,29.91,10.0,SE,4.6,-,0.00,,Clear,140,2013-06-14 23:15:00
7:35 PM,80.6,64.4,58,29.92,10.0,Calm,Calm,-,0.00,,Clear,0,2013-06-14 23:35:00
7:55 PM,78.8,64.4,61,29.92,10.0,Calm,Calm,-,0.00,,Clear,0,2013-06-14 23:55:00
8:15 PM,78.8,64.4,61,29.94,10.0,Calm,Calm,-,0.00,,Clear,0,2013-06-15 00:15:00
8:35 PM,77.0,64.4,65,29.94,10.0,Calm,Calm,-,0.00,,Clear,0,2013-06-15 00:35:00
8:55 PM,75.2,66.2,73,29.95,10.0,Calm,Calm,-,0.00,,Clear,0,2013-06-15 00:55:00
9:15 PM,75.2,68.0,78,29.95,10.0,Calm,Calm,-,0.00,,Clear,0,2013-06-15 01:15:00
9:35 PM,75.2,66.2,73,29.96,10.0,Calm,Calm,-,0.00,,Clear,0,2013-06-15 01:35:00
9:55 PM,73.4,66.2,78,29.97,10.0,Calm,Calm,-,0.00,,Clear,0,2013-06-15 01:55:00
10:15 PM,73.4,66.2,78,29.98,10.0,Calm,Calm,-,0.00,,Clear,0,2013-06-15 02:15:00
10:35 PM,71.6,66.2,83,29.98,10.0,Calm,Calm,-,0.00,,Clear,0,2013-06-15 02:35:00
10:55 PM,71.6,66.2,83,29.99,10.0,Calm,Calm,-,0.00,,Clear,0,2013-06-15 02:55:00
11:15 PM,71.6,66.2,83,29.99,10.0,Calm,Calm,-,0.00,,Clear,0,2013-06-15 03:15:00
11:35 PM,71.6,66.2,83,30.00,10.0,Calm,Calm,-,0.00,,Clear,0,2013-06-15 03:35:00
11:55 PM,71.6,66.2,83,30.01,10.0,Calm,Calm,-,0.00,,Clear,0,2013-06-15 03:55:00